Airport View

Enter AWOS ICAO identifier for current METAR.

ex. KFNL

PASH 261156Z AUTO 10011KT 10SM CLR 12/09 A3002 RMK AO2 SLP168 7//// T01220089 10128 20117 58003

26 Jun 2019 12:23

Frequency: 121.1

Other Area AWOS: PFKT - PATE - PATC - PAIW

TAF PAOT 261122Z 2612/2712 09010KT P6SM SCT100 SCT200 FM270300 12012KT P6SM SCT050 BKN100 BKN200